sensor_id;sensor_type;location;lat;lon;timestamp;P1;durP1;ratioP1;P2;durP2;ratioP2
62894;SDS011;49204;44.916;37.998;2023-03-14T00:01:22;12.88;;;5.72;;
62894;SDS011;49204;44.916;37.998;2023-03-14T00:03:52;18.42;;;6.83;;
62894;SDS011;49204;44.916;37.998;2023-03-14T00:06:21;13.80;;;5.67;;
62894;SDS011;49204;44.916;37.998;2023-03-14T00:08:50;20.10;;;6.42;;
62894;SDS011;49204;44.916;37.998;2023-03-14T00:11:20;18.25;;;6.80;;
62894;SDS011;49204;44.916;37.998;2023-03-14T00:13:52;17.17;;;7.72;;
62894;SDS011;49204;44.916;37.998;2023-03-14T00:16:21;17.42;;;6.83;;
62894;SDS011;49204;44.916;37.998;2023-03-14T00:18:49;20.40;;;7.22;;
62894;SDS011;49204;44.916;37.998;2023-03-14T00:21:18;16.93;;;6.58;;
62894;SDS011;49204;44.916;37.998;2023-03-14T00:23:47;17.60;;;6.58;;
62894;SDS011;49204;44.916;37.998;2023-03-14T00:26:16;16.52;;;6.15;;
62894;SDS011;49204;44.916;37.998;2023-03-14T00:28:47;20.68;;;6.78;;
62894;SDS011;49204;44.916;37.998;2023-03-14T00:31:17;18.30;;;7.37;;
62894;SDS011;49204;44.916;37.998;2023-03-14T00:33:46;10.68;;;5.20;;
62894;SDS011;49204;44.916;37.998;2023-03-14T00:36:16;15.78;;;6.80;;
62894;SDS011;49204;44.916;37.998;2023-03-14T00:38:47;17.55;;;7.67;;
62894;SDS011;49204;44.916;37.998;2023-03-14T00:41:18;21.27;;;8.60;;
62894;SDS011;49204;44.916;37.998;2023-03-14T00:43:49;18.40;;;8.10;;
62894;SDS011;49204;44.916;37.998;2023-03-14T00:46:19;24.25;;;8.75;;
62894;SDS011;49204;44.916;37.998;2023-03-14T00:48:48;19.27;;;8.43;;
62894;SDS011;49204;44.916;37.998;2023-03-14T00:51:16;18.67;;;7.78;;
62894;SDS011;49204;44.916;37.998;2023-03-14T00:53:45;21.15;;;8.13;;
62894;SDS011;49204;44.916;37.998;2023-03-14T00:56:14;25.95;;;9.08;;
62894;SDS011;49204;44.916;37.998;2023-03-14T00:58:44;15.03;;;6.45;;
62894;SDS011;49204;44.916;37.998;2023-03-14T01:01:14;26.93;;;9.40;;
62894;SDS011;49204;44.916;37.998;2023-03-14T01:03:45;22.77;;;7.67;;
62894;SDS011;49204;44.916;37.998;2023-03-14T01:06:16;27.17;;;10.80;;
62894;SDS011;49204;44.916;37.998;2023-03-14T01:08:46;20.45;;;8.38;;
62894;SDS011;49204;44.916;37.998;2023-03-14T01:11:17;21.23;;;8.38;;
62894;SDS011;49204;44.916;37.998;2023-03-14T01:13:47;21.25;;;5.35;;
62894;SDS011;49204;44.916;37.998;2023-03-14T01:16:16;23.07;;;8.23;;
62894;SDS011;49204;44.916;37.998;2023-03-14T01:18:46;20.70;;;7.25;;
62894;SDS011;49204;44.916;37.998;2023-03-14T01:21:17;16.85;;;5.78;;
62894;SDS011;49204;44.916;37.998;2023-03-14T01:23:48;16.45;;;7.37;;
62894;SDS011;49204;44.916;37.998;2023-03-14T01:26:19;19.95;;;7.28;;
62894;SDS011;49204;44.916;37.998;2023-03-14T01:28:50;24.50;;;8.88;;
62894;SDS011;49204;44.916;37.998;2023-03-14T01:31:20;25.15;;;8.03;;
62894;SDS011;49204;44.916;37.998;2023-03-14T01:33:49;51.60;;;9.45;;
62894;SDS011;49204;44.916;37.998;2023-03-14T01:36:19;25.12;;;8.28;;
62894;SDS011;49204;44.916;37.998;2023-03-14T01:38:48;22.17;;;7.45;;
62894;SDS011;49204;44.916;37.998;2023-03-14T01:41:22;25.62;;;8.40;;
62894;SDS011;49204;44.916;37.998;2023-03-14T01:43:51;27.00;;;9.98;;
62894;SDS011;49204;44.916;37.998;2023-03-14T01:49:29;20.25;;;7.50;;
62894;SDS011;49204;44.916;37.998;2023-03-14T01:52:10;17.82;;;6.83;;
62894;SDS011;49204;44.916;37.998;2023-03-14T01:54:39;24.65;;;8.85;;
62894;SDS011;49204;44.916;37.998;2023-03-14T01:57:23;19.42;;;7.33;;
62894;SDS011;49204;44.916;37.998;2023-03-14T02:00:00;26.95;;;8.53;;
62894;SDS011;49204;44.916;37.998;2023-03-14T02:02:48;19.23;;;7.20;;
62894;SDS011;49204;44.916;37.998;2023-03-14T02:05:16;24.80;;;8.10;;
62894;SDS011;49204;44.916;37.998;2023-03-14T02:07:57;25.97;;;9.63;;
62894;SDS011;49204;44.916;37.998;2023-03-14T02:10:35;19.73;;;7.50;;
62894;SDS011;49204;44.916;37.998;2023-03-14T02:13:11;16.30;;;6.87;;
62894;SDS011;49204;44.916;37.998;2023-03-14T02:15:42;28.98;;;9.00;;
62894;SDS011;49204;44.916;37.998;2023-03-14T02:18:16;20.23;;;7.20;;
62894;SDS011;49204;44.916;37.998;2023-03-14T02:21:21;22.70;;;9.33;;
62894;SDS011;49204;44.916;37.998;2023-03-14T02:29:39;27.25;;;9.13;;
62894;SDS011;49204;44.916;37.998;2023-03-14T02:32:10;24.60;;;8.55;;
62894;SDS011;49204;44.916;37.998;2023-03-14T02:34:39;23.00;;;9.05;;
62894;SDS011;49204;44.916;37.998;2023-03-14T02:37:13;22.60;;;8.80;;
62894;SDS011;49204;44.916;37.998;2023-03-14T02:39:44;28.47;;;9.65;;
62894;SDS011;49204;44.916;37.998;2023-03-14T02:42:15;17.23;;;7.62;;
62894;SDS011;49204;44.916;37.998;2023-03-14T02:44:52;21.33;;;8.00;;
62894;SDS011;49204;44.916;37.998;2023-03-14T02:47:24;21.55;;;9.50;;
62894;SDS011;49204;44.916;37.998;2023-03-14T02:49:57;21.80;;;8.60;;
62894;SDS011;49204;44.916;37.998;2023-03-14T02:52:26;23.70;;;8.60;;
62894;SDS011;49204;44.916;37.998;2023-03-14T02:54:55;28.07;;;10.75;;
62894;SDS011;49204;44.916;37.998;2023-03-14T02:57:25;31.45;;;10.38;;
62894;SDS011;49204;44.916;37.998;2023-03-14T02:59:53;23.62;;;8.83;;
62894;SDS011;49204;44.916;37.998;2023-03-14T03:02:23;25.40;;;8.63;;
62894;SDS011;49204;44.916;37.998;2023-03-14T03:04:52;28.73;;;8.50;;
62894;SDS011;49204;44.916;37.998;2023-03-14T03:07:21;17.40;;;7.58;;
62894;SDS011;49204;44.916;37.998;2023-03-14T03:09:50;27.07;;;9.20;;
62894;SDS011;49204;44.916;37.998;2023-03-14T03:12:18;20.32;;;8.18;;
62894;SDS011;49204;44.916;37.998;2023-03-14T03:14:47;31.33;;;9.90;;
62894;SDS011;49204;44.916;37.998;2023-03-14T03:17:16;27.37;;;10.23;;
62894;SDS011;49204;44.916;37.998;2023-03-14T03:19:44;25.70;;;10.23;;
62894;SDS011;49204;44.916;37.998;2023-03-14T03:22:13;27.70;;;9.60;;
62894;SDS011;49204;44.916;37.998;2023-03-14T03:24:42;25.60;;;9.50;;
62894;SDS011;49204;44.916;37.998;2023-03-14T03:27:11;23.73;;;8.68;;
62894;SDS011;49204;44.916;37.998;2023-03-14T03:29:40;25.55;;;8.43;;
62894;SDS011;49204;44.916;37.998;2023-03-14T03:32:08;24.65;;;9.40;;
62894;SDS011;49204;44.916;37.998;2023-03-14T03:34:37;22.13;;;8.33;;
62894;SDS011;49204;44.916;37.998;2023-03-14T03:37:06;30.50;;;9.40;;
62894;SDS011;49204;44.916;37.998;2023-03-14T03:39:36;22.45;;;8.63;;
62894;SDS011;49204;44.916;37.998;2023-03-14T03:42:05;31.73;;;10.08;;
62894;SDS011;49204;44.916;37.998;2023-03-14T03:44:34;28.00;;;9.70;;
62894;SDS011;49204;44.916;37.998;2023-03-14T03:47:03;34.27;;;9.68;;
62894;SDS011;49204;44.916;37.998;2023-03-14T03:49:32;30.45;;;10.75;;
62894;SDS011;49204;44.916;37.998;2023-03-14T03:52:01;28.60;;;10.00;;
62894;SDS011;49204;44.916;37.998;2023-03-14T03:54:29;36.15;;;11.97;;
62894;SDS011;49204;44.916;37.998;2023-03-14T03:56:59;39.55;;;11.90;;
62894;SDS011;49204;44.916;37.998;2023-03-14T03:59:27;35.00;;;11.45;;
62894;SDS011;49204;44.916;37.998;2023-03-14T04:01:56;28.77;;;11.48;;
62894;SDS011;49204;44.916;37.998;2023-03-14T04:04:25;32.13;;;8.88;;
62894;SDS011;49204;44.916;37.998;2023-03-14T04:06:54;23.32;;;8.75;;
62894;SDS011;49204;44.916;37.998;2023-03-14T04:09:23;27.65;;;10.48;;
62894;SDS011;49204;44.916;37.998;2023-03-14T04:11:59;38.75;;;11.48;;
62894;SDS011;49204;44.916;37.998;2023-03-14T04:14:35;44.60;;;14.23;;
62894;SDS011;49204;44.916;37.998;2023-03-14T04:17:11;45.25;;;14.40;;
62894;SDS011;49204;44.916;37.998;2023-03-14T04:19:40;36.63;;;12.15;;
62894;SDS011;49204;44.916;37.998;2023-03-14T04:22:09;28.02;;;11.48;;
62894;SDS011;49204;44.916;37.998;2023-03-14T04:24:39;28.10;;;10.43;;
62894;SDS011;49204;44.916;37.998;2023-03-14T04:27:08;31.93;;;12.28;;
62894;SDS011;49204;44.916;37.998;2023-03-14T04:29:37;37.13;;;10.93;;
62894;SDS011;49204;44.916;37.998;2023-03-14T04:39:03;28.60;;;9.73;;
62894;SDS011;49204;44.916;37.998;2023-03-14T04:41:33;33.50;;;12.50;;
62894;SDS011;49204;44.916;37.998;2023-03-14T04:44:03;25.00;;;9.85;;
62894;SDS011;49204;44.916;37.998;2023-03-14T04:46:33;35.78;;;11.68;;
62894;SDS011;49204;44.916;37.998;2023-03-14T04:49:04;39.90;;;14.35;;
62894;SDS011;49204;44.916;37.998;2023-03-14T04:51:33;42.78;;;13.43;;
62894;SDS011;49204;44.916;37.998;2023-03-14T04:54:01;44.05;;;14.90;;
62894;SDS011;49204;44.916;37.998;2023-03-14T04:56:31;45.63;;;16.75;;
62894;SDS011;49204;44.916;37.998;2023-03-14T04:59:01;37.63;;;14.40;;
62894;SDS011;49204;44.916;37.998;2023-03-14T05:01:31;48.33;;;16.35;;
62894;SDS011;49204;44.916;37.998;2023-03-14T05:04:18;45.28;;;17.50;;
62894;SDS011;49204;44.916;37.998;2023-03-14T05:06:48;37.45;;;14.15;;
62894;SDS011;49204;44.916;37.998;2023-03-14T05:09:27;35.80;;;12.88;;
62894;SDS011;49204;44.916;37.998;2023-03-14T05:12:06;42.95;;;14.23;;
62894;SDS011;49204;44.916;37.998;2023-03-14T05:14:52;43.35;;;14.90;;
62894;SDS011;49204;44.916;37.998;2023-03-14T05:17:35;30.65;;;13.20;;
62894;SDS011;49204;44.916;37.998;2023-03-14T05:20:14;26.02;;;10.45;;
62894;SDS011;49204;44.916;37.998;2023-03-14T05:22:51;39.10;;;15.30;;
62894;SDS011;49204;44.916;37.998;2023-03-14T05:25:21;31.65;;;11.53;;
62894;SDS011;49204;44.916;37.998;2023-03-14T05:27:57;35.75;;;13.45;;
62894;SDS011;49204;44.916;37.998;2023-03-14T05:30:40;30.23;;;11.97;;
62894;SDS011;49204;44.916;37.998;2023-03-14T05:33:29;29.82;;;10.32;;
62894;SDS011;49204;44.916;37.998;2023-03-14T05:36:11;31.00;;;9.63;;
62894;SDS011;49204;44.916;37.998;2023-03-14T05:38:58;25.55;;;8.48;;
62894;SDS011;49204;44.916;37.998;2023-03-14T05:41:40;19.10;;;7.15;;
62894;SDS011;49204;44.916;37.998;2023-03-14T05:44:19;21.52;;;8.78;;
62894;SDS011;49204;44.916;37.998;2023-03-14T05:47:02;20.70;;;8.10;;
62894;SDS011;49204;44.916;37.998;2023-03-14T05:49:41;25.12;;;9.58;;
62894;SDS011;49204;44.916;37.998;2023-03-14T05:52:14;19.25;;;7.80;;
62894;SDS011;49204;44.916;37.998;2023-03-14T05:54:48;24.25;;;9.28;;
62894;SDS011;49204;44.916;37.998;2023-03-14T05:57:24;26.68;;;8.40;;
62894;SDS011;49204;44.916;37.998;2023-03-14T05:59:57;16.15;;;6.47;;
62894;SDS011;49204;44.916;37.998;2023-03-14T06:02:42;16.40;;;6.70;;
62894;SDS011;49204;44.916;37.998;2023-03-14T06:05:13;25.50;;;7.22;;
62894;SDS011;49204;44.916;37.998;2023-03-14T06:07:41;16.80;;;7.12;;
62894;SDS011;49204;44.916;37.998;2023-03-14T06:10:10;23.38;;;7.83;;
62894;SDS011;49204;44.916;37.998;2023-03-14T06:12:39;17.48;;;7.45;;
62894;SDS011;49204;44.916;37.998;2023-03-14T06:15:08;20.10;;;7.78;;
62894;SDS011;49204;44.916;37.998;2023-03-14T06:17:38;22.73;;;8.18;;
62894;SDS011;49204;44.916;37.998;2023-03-14T06:20:08;21.75;;;9.23;;
62894;SDS011;49204;44.916;37.998;2023-03-14T06:22:38;17.77;;;7.30;;
62894;SDS011;49204;44.916;37.998;2023-03-14T06:25:08;18.60;;;6.97;;
62894;SDS011;49204;44.916;37.998;2023-03-14T06:27:37;10.55;;;5.53;;
62894;SDS011;49204;44.916;37.998;2023-03-14T06:30:06;22.15;;;8.33;;
62894;SDS011;49204;44.916;37.998;2023-03-14T06:32:36;21.55;;;7.75;;
62894;SDS011;49204;44.916;37.998;2023-03-14T06:35:07;20.32;;;7.40;;
62894;SDS011;49204;44.916;37.998;2023-03-14T06:37:37;26.48;;;9.98;;
62894;SDS011;49204;44.916;37.998;2023-03-14T06:40:07;16.30;;;6.80;;
62894;SDS011;49204;44.916;37.998;2023-03-14T06:42:38;23.15;;;9.73;;
62894;SDS011;49204;44.916;37.998;2023-03-14T06:45:08;24.23;;;9.85;;
62894;SDS011;49204;44.916;37.998;2023-03-14T06:47:37;30.68;;;11.18;;
62894;SDS011;49204;44.916;37.998;2023-03-14T06:50:07;54.18;;;20.50;;
62894;SDS011;49204;44.916;37.998;2023-03-14T06:52:37;22.73;;;7.70;;
62894;SDS011;49204;44.916;37.998;2023-03-14T06:55:07;29.82;;;10.80;;
62894;SDS011;49204;44.916;37.998;2023-03-14T06:57:37;29.23;;;11.63;;
62894;SDS011;49204;44.916;37.998;2023-03-14T07:00:06;27.82;;;9.53;;
62894;SDS011;49204;44.916;37.998;2023-03-14T07:02:36;27.22;;;8.45;;
62894;SDS011;49204;44.916;37.998;2023-03-14T07:05:06;24.57;;;8.38;;
62894;SDS011;49204;44.916;37.998;2023-03-14T07:07:36;19.07;;;7.33;;
62894;SDS011;49204;44.916;37.998;2023-03-14T07:10:06;11.53;;;3.55;;
62894;SDS011;49204;44.916;37.998;2023-03-14T07:12:35;12.60;;;4.72;;
62894;SDS011;49204;44.916;37.998;2023-03-14T07:15:04;7.12;;;2.77;;
62894;SDS011;49204;44.916;37.998;2023-03-14T07:17:33;5.22;;;2.67;;
62894;SDS011;49204;44.916;37.998;2023-03-14T07:20:03;5.15;;;2.90;;
62894;SDS011;49204;44.916;37.998;2023-03-14T07:22:33;4.22;;;2.35;;
62894;SDS011;49204;44.916;37.998;2023-03-14T07:25:02;3.77;;;2.20;;
62894;SDS011;49204;44.916;37.998;2023-03-14T07:27:32;2.83;;;1.42;;
62894;SDS011;49204;44.916;37.998;2023-03-14T07:30:00;4.37;;;2.12;;
62894;SDS011;49204;44.916;37.998;2023-03-14T07:32:30;6.67;;;2.30;;
62894;SDS011;49204;44.916;37.998;2023-03-14T07:34:59;2.30;;;1.30;;
62894;SDS011;49204;44.916;37.998;2023-03-14T07:37:27;3.67;;;1.70;;
62894;SDS011;49204;44.916;37.998;2023-03-14T07:39:57;5.83;;;2.15;;
62894;SDS011;49204;44.916;37.998;2023-03-14T07:42:27;4.35;;;2.62;;
62894;SDS011;49204;44.916;37.998;2023-03-14T07:45:00;4.95;;;1.87;;
62894;SDS011;49204;44.916;37.998;2023-03-14T07:47:29;1.57;;;0.93;;
62894;SDS011;49204;44.916;37.998;2023-03-14T07:49:58;2.87;;;1.30;;
62894;SDS011;49204;44.916;37.998;2023-03-14T07:52:28;4.85;;;1.92;;
62894;SDS011;49204;44.916;37.998;2023-03-14T07:54:56;4.58;;;2.42;;
62894;SDS011;49204;44.916;37.998;2023-03-14T07:57:25;1.42;;;0.98;;
62894;SDS011;49204;44.916;37.998;2023-03-14T07:59:53;3.05;;;1.55;;
62894;SDS011;49204;44.916;37.998;2023-03-14T08:02:22;6.72;;;2.12;;
62894;SDS011;49204;44.916;37.998;2023-03-14T08:04:51;2.90;;;1.90;;
62894;SDS011;49204;44.916;37.998;2023-03-14T08:07:20;5.42;;;2.15;;
62894;SDS011;49204;44.916;37.998;2023-03-14T08:09:48;3.87;;;2.60;;
62894;SDS011;49204;44.916;37.998;2023-03-14T08:12:17;3.85;;;2.02;;
62894;SDS011;49204;44.916;37.998;2023-03-14T08:14:45;2.00;;;1.42;;
62894;SDS011;49204;44.916;37.998;2023-03-14T08:17:14;4.58;;;2.40;;
62894;SDS011;49204;44.916;37.998;2023-03-14T08:19:42;4.87;;;2.10;;
62894;SDS011;49204;44.916;37.998;2023-03-14T08:22:11;2.33;;;1.00;;
62894;SDS011;49204;44.916;37.998;2023-03-14T08:24:40;6.20;;;2.33;;
62894;SDS011;49204;44.916;37.998;2023-03-14T08:27:08;3.37;;;1.77;;
62894;SDS011;49204;44.916;37.998;2023-03-14T08:29:37;3.40;;;1.75;;
62894;SDS011;49204;44.916;37.998;2023-03-14T08:32:07;3.98;;;2.02;;
62894;SDS011;49204;44.916;37.998;2023-03-14T08:34:35;4.47;;;2.00;;
62894;SDS011;49204;44.916;37.998;2023-03-14T08:37:04;5.35;;;2.80;;
62894;SDS011;49204;44.916;37.998;2023-03-14T08:39:33;3.45;;;2.20;;
62894;SDS011;49204;44.916;37.998;2023-03-14T08:42:02;10.23;;;2.45;;
62894;SDS011;49204;44.916;37.998;2023-03-14T08:44:31;4.58;;;2.80;;
62894;SDS011;49204;44.916;37.998;2023-03-14T08:46:59;3.67;;;2.47;;
62894;SDS011;49204;44.916;37.998;2023-03-14T08:49:28;4.72;;;1.70;;
62894;SDS011;49204;44.916;37.998;2023-03-14T08:51:57;3.58;;;1.55;;
62894;SDS011;49204;44.916;37.998;2023-03-14T08:54:26;3.85;;;2.02;;
62894;SDS011;49204;44.916;37.998;2023-03-14T08:56:54;5.90;;;2.70;;
62894;SDS011;49204;44.916;37.998;2023-03-14T08:59:23;3.40;;;1.70;;
62894;SDS011;49204;44.916;37.998;2023-03-14T09:01:52;3.33;;;2.00;;
62894;SDS011;49204;44.916;37.998;2023-03-14T09:04:21;5.15;;;2.67;;
62894;SDS011;49204;44.916;37.998;2023-03-14T09:06:49;3.50;;;2.20;;
62894;SDS011;49204;44.916;37.998;2023-03-14T09:09:18;4.40;;;2.35;;
62894;SDS011;49204;44.916;37.998;2023-03-14T09:11:46;2.98;;;1.57;;
62894;SDS011;49204;44.916;37.998;2023-03-14T09:14:15;2.12;;;1.25;;
62894;SDS011;49204;44.916;37.998;2023-03-14T09:16:44;3.05;;;1.55;;
62894;SDS011;49204;44.916;37.998;2023-03-14T09:19:12;2.92;;;1.85;;
62894;SDS011;49204;44.916;37.998;2023-03-14T09:21:41;4.62;;;2.75;;
62894;SDS011;49204;44.916;37.998;2023-03-14T09:24:09;3.12;;;1.42;;
62894;SDS011;49204;44.916;37.998;2023-03-14T09:26:38;3.27;;;2.00;;
62894;SDS011;49204;44.916;37.998;2023-03-14T09:29:07;2.05;;;0.85;;
62894;SDS011;49204;44.916;37.998;2023-03-14T09:31:35;2.47;;;2.05;;
62894;SDS011;49204;44.916;37.998;2023-03-14T09:34:04;7.08;;;2.85;;
62894;SDS011;49204;44.916;37.998;2023-03-14T09:36:32;3.12;;;2.00;;
62894;SDS011;49204;44.916;37.998;2023-03-14T09:39:01;2.77;;;1.80;;
62894;SDS011;49204;44.916;37.998;2023-03-14T09:41:31;2.85;;;1.82;;
62894;SDS011;49204;44.916;37.998;2023-03-14T09:44:03;5.12;;;2.17;;
62894;SDS011;49204;44.916;37.998;2023-03-14T09:46:35;3.98;;;1.72;;
62894;SDS011;49204;44.916;37.998;2023-03-14T09:49:12;4.35;;;2.10;;
62894;SDS011;49204;44.916;37.998;2023-03-14T09:51:43;4.05;;;2.62;;
62894;SDS011;49204;44.916;37.998;2023-03-14T09:54:18;3.52;;;1.40;;
62894;SDS011;49204;44.916;37.998;2023-03-14T09:56:58;1.90;;;1.20;;
62894;SDS011;49204;44.916;37.998;2023-03-14T09:59:27;3.83;;;2.40;;
62894;SDS011;49204;44.916;37.998;2023-03-14T10:01:58;3.85;;;2.35;;
62894;SDS011;49204;44.916;37.998;2023-03-14T10:04:31;3.80;;;2.20;;
62894;SDS011;49204;44.916;37.998;2023-03-14T10:07:00;7.50;;;2.52;;
62894;SDS011;49204;44.916;37.998;2023-03-14T10:09:29;5.28;;;2.47;;
62894;SDS011;49204;44.916;37.998;2023-03-14T10:11:58;6.85;;;2.62;;
62894;SDS011;49204;44.916;37.998;2023-03-14T10:14:30;9.55;;;2.45;;
62894;SDS011;49204;44.916;37.998;2023-03-14T10:17:09;2.67;;;1.90;;
62894;SDS011;49204;44.916;37.998;2023-03-14T10:19:57;5.25;;;2.35;;
62894;SDS011;49204;44.916;37.998;2023-03-14T10:22:31;3.05;;;1.50;;
62894;SDS011;49204;44.916;37.998;2023-03-14T10:25:03;5.15;;;2.15;;
62894;SDS011;49204;44.916;37.998;2023-03-14T10:27:35;5.30;;;1.87;;
62894;SDS011;49204;44.916;37.998;2023-03-14T10:30:14;3.05;;;1.77;;
62894;SDS011;49204;44.916;37.998;2023-03-14T10:32:36;2.83;;;1.60;;
62894;SDS011;49204;44.916;37.998;2023-03-14T10:37:50;3.12;;;1.52;;
62894;SDS011;49204;44.916;37.998;2023-03-14T10:40:24;3.62;;;1.80;;
62894;SDS011;49204;44.916;37.998;2023-03-14T10:42:52;6.05;;;3.35;;
62894;SDS011;49204;44.916;37.998;2023-03-14T10:47:57;3.37;;;1.22;;
62894;SDS011;49204;44.916;37.998;2023-03-14T10:50:28;8.23;;;2.70;;
62894;SDS011;49204;44.916;37.998;2023-03-14T10:53:01;8.98;;;3.58;;
62894;SDS011;49204;44.916;37.998;2023-03-14T10:55:39;4.62;;;2.27;;
62894;SDS011;49204;44.916;37.998;2023-03-14T10:58:27;4.60;;;2.12;;
62894;SDS011;49204;44.916;37.998;2023-03-14T11:01:00;3.87;;;1.60;;
62894;SDS011;49204;44.916;37.998;2023-03-14T11:03:38;5.08;;;1.20;;
62894;SDS011;49204;44.916;37.998;2023-03-14T11:06:22;2.65;;;1.80;;
62894;SDS011;49204;44.916;37.998;2023-03-14T11:11:44;5.47;;;2.55;;
62894;SDS011;49204;44.916;37.998;2023-03-14T11:14:24;2.62;;;1.42;;
62894;SDS011;49204;44.916;37.998;2023-03-14T11:16:59;5.60;;;2.50;;
62894;SDS011;49204;44.916;37.998;2023-03-14T11:28:09;2.47;;;1.57;;
62894;SDS011;49204;44.916;37.998;2023-03-14T11:30:52;3.60;;;1.85;;
62894;SDS011;49204;44.916;37.998;2023-03-14T11:33:24;7.78;;;2.55;;
62894;SDS011;49204;44.916;37.998;2023-03-14T11:36:04;5.85;;;2.85;;
62894;SDS011;49204;44.916;37.998;2023-03-14T11:41:16;4.25;;;2.00;;
62894;SDS011;49204;44.916;37.998;2023-03-14T11:43:46;6.20;;;2.67;;
62894;SDS011;49204;44.916;37.998;2023-03-14T11:52:06;3.22;;;1.85;;
62894;SDS011;49204;44.916;37.998;2023-03-14T11:54:44;3.62;;;1.55;;
62894;SDS011;49204;44.916;37.998;2023-03-14T11:57:26;3.98;;;1.95;;
62894;SDS011;49204;44.916;37.998;2023-03-14T12:00:12;4.75;;;2.87;;
62894;SDS011;49204;44.916;37.998;2023-03-14T12:02:45;4.10;;;2.58;;
62894;SDS011;49204;44.916;37.998;2023-03-14T12:05:54;4.53;;;2.12;;
62894;SDS011;49204;44.916;37.998;2023-03-14T12:08:37;4.92;;;1.90;;
62894;SDS011;49204;44.916;37.998;2023-03-14T12:11:28;3.65;;;1.92;;
62894;SDS011;49204;44.916;37.998;2023-03-14T12:14:20;2.85;;;1.70;;
62894;SDS011;49204;44.916;37.998;2023-03-14T12:16:57;2.55;;;1.35;;
62894;SDS011;49204;44.916;37.998;2023-03-14T12:19:30;3.62;;;1.82;;
62894;SDS011;49204;44.916;37.998;2023-03-14T12:24:55;6.47;;;2.58;;
62894;SDS011;49204;44.916;37.998;2023-03-14T12:27:43;3.85;;;2.42;;
62894;SDS011;49204;44.916;37.998;2023-03-14T12:30:23;3.37;;;1.50;;
62894;SDS011;49204;44.916;37.998;2023-03-14T12:33:12;5.65;;;2.12;;
62894;SDS011;49204;44.916;37.998;2023-03-14T12:35:49;3.05;;;1.60;;
62894;SDS011;49204;44.916;37.998;2023-03-14T12:38:27;4.42;;;1.77;;
62894;SDS011;49204;44.916;37.998;2023-03-14T12:49:49;4.17;;;1.52;;
62894;SDS011;49204;44.916;37.998;2023-03-14T12:52:22;3.52;;;2.58;;
62894;SDS011;49204;44.916;37.998;2023-03-14T12:55:19;2.58;;;1.92;;
62894;SDS011;49204;44.916;37.998;2023-03-14T13:00:31;2.58;;;1.00;;
62894;SDS011;49204;44.916;37.998;2023-03-14T13:03:25;2.47;;;1.55;;
62894;SDS011;49204;44.916;37.998;2023-03-14T13:05:52;4.00;;;2.30;;
62894;SDS011;49204;44.916;37.998;2023-03-14T13:08:35;4.20;;;1.77;;
62894;SDS011;49204;44.916;37.998;2023-03-14T13:11:16;2.65;;;1.00;;
62894;SDS011;49204;44.916;37.998;2023-03-14T13:13:49;5.12;;;1.80;;
62894;SDS011;49204;44.916;37.998;2023-03-14T13:16:25;1.72;;;1.20;;
62894;SDS011;49204;44.916;37.998;2023-03-14T13:19:03;3.42;;;1.52;;
62894;SDS011;49204;44.916;37.998;2023-03-14T13:21:40;4.00;;;1.25;;
62894;SDS011;49204;44.916;37.998;2023-03-14T13:24:25;2.90;;;1.70;;
62894;SDS011;49204;44.916;37.998;2023-03-14T13:26:55;1.55;;;0.90;;
62894;SDS011;49204;44.916;37.998;2023-03-14T13:29:28;1.95;;;1.32;;
62894;SDS011;49204;44.916;37.998;2023-03-14T13:32:00;5.12;;;2.20;;
62894;SDS011;49204;44.916;37.998;2023-03-14T13:34:33;1.62;;;1.22;;
62894;SDS011;49204;44.916;37.998;2023-03-14T13:37:02;2.62;;;1.50;;
62894;SDS011;49204;44.916;37.998;2023-03-14T13:39:31;2.33;;;1.50;;
62894;SDS011;49204;44.916;37.998;2023-03-14T13:42:00;2.10;;;1.05;;
62894;SDS011;49204;44.916;37.998;2023-03-14T13:44:30;1.67;;;1.10;;
62894;SDS011;49204;44.916;37.998;2023-03-14T13:47:05;3.27;;;1.30;;
62894;SDS011;49204;44.916;37.998;2023-03-14T13:49:36;4.22;;;1.87;;
62894;SDS011;49204;44.916;37.998;2023-03-14T13:52:40;4.78;;;1.32;;
62894;SDS011;49204;44.916;37.998;2023-03-14T13:54:53;3.95;;;1.90;;
62894;SDS011;49204;44.916;37.998;2023-03-14T13:57:22;3.92;;;1.72;;
62894;SDS011;49204;44.916;37.998;2023-03-14T14:00:02;1.85;;;1.22;;
62894;SDS011;49204;44.916;37.998;2023-03-14T14:02:30;2.95;;;2.30;;
62894;SDS011;49204;44.916;37.998;2023-03-14T14:05:01;2.45;;;1.25;;
62894;SDS011;49204;44.916;37.998;2023-03-14T14:07:30;2.25;;;1.12;;
62894;SDS011;49204;44.916;37.998;2023-03-14T14:09:59;4.00;;;1.72;;
62894;SDS011;49204;44.916;37.998;2023-03-14T14:12:29;2.05;;;1.02;;
62894;SDS011;49204;44.916;37.998;2023-03-14T14:15:12;4.95;;;2.40;;
62894;SDS011;49204;44.916;37.998;2023-03-14T14:17:57;4.20;;;1.52;;
62894;SDS011;49204;44.916;37.998;2023-03-14T14:20:28;2.55;;;1.55;;
62894;SDS011;49204;44.916;37.998;2023-03-14T14:23:03;2.67;;;1.50;;
62894;SDS011;49204;44.916;37.998;2023-03-14T14:25:34;3.30;;;1.72;;
62894;SDS011;49204;44.916;37.998;2023-03-14T14:34:22;3.83;;;2.22;;
62894;SDS011;49204;44.916;37.998;2023-03-14T14:39:03;2.67;;;1.25;;
62894;SDS011;49204;44.916;37.998;2023-03-14T14:41:35;3.72;;;1.45;;
62894;SDS011;49204;44.916;37.998;2023-03-14T14:44:05;7.00;;;2.80;;
62894;SDS011;49204;44.916;37.998;2023-03-14T14:46:35;3.55;;;2.02;;
62894;SDS011;49204;44.916;37.998;2023-03-14T14:49:06;3.37;;;1.12;;
62894;SDS011;49204;44.916;37.998;2023-03-14T14:51:40;8.25;;;2.27;;
62894;SDS011;49204;44.916;37.998;2023-03-14T14:54:20;2.87;;;1.77;;
62894;SDS011;49204;44.916;37.998;2023-03-14T14:56:51;6.05;;;2.33;;
62894;SDS011;49204;44.916;37.998;2023-03-14T14:59:25;3.62;;;1.35;;
62894;SDS011;49204;44.916;37.998;2023-03-14T15:02:00;4.62;;;1.47;;
62894;SDS011;49204;44.916;37.998;2023-03-14T15:04:30;6.03;;;1.80;;
62894;SDS011;49204;44.916;37.998;2023-03-14T15:06:59;3.95;;;2.27;;
62894;SDS011;49204;44.916;37.998;2023-03-14T15:09:27;3.65;;;1.62;;
62894;SDS011;49204;44.916;37.998;2023-03-14T15:11:56;6.35;;;2.15;;
62894;SDS011;49204;44.916;37.998;2023-03-14T15:14:25;5.55;;;2.25;;
62894;SDS011;49204;44.916;37.998;2023-03-14T15:16:53;2.15;;;1.22;;
62894;SDS011;49204;44.916;37.998;2023-03-14T15:19:23;2.90;;;1.17;;
62894;SDS011;49204;44.916;37.998;2023-03-14T15:21:53;4.78;;;1.62;;
62894;SDS011;49204;44.916;37.998;2023-03-14T15:24:21;4.72;;;1.92;;
62894;SDS011;49204;44.916;37.998;2023-03-14T15:26:51;2.40;;;1.65;;
62894;SDS011;49204;44.916;37.998;2023-03-14T15:29:19;1.82;;;1.15;;
62894;SDS011;49204;44.916;37.998;2023-03-14T15:31:48;3.22;;;1.52;;
62894;SDS011;49204;44.916;37.998;2023-03-14T15:34:17;4.72;;;2.25;;
62894;SDS011;49204;44.916;37.998;2023-03-14T15:36:45;4.17;;;2.05;;
62894;SDS011;49204;44.916;37.998;2023-03-14T15:39:15;9.18;;;2.20;;
62894;SDS011;49204;44.916;37.998;2023-03-14T15:41:43;8.33;;;2.55;;
62894;SDS011;49204;44.916;37.998;2023-03-14T15:44:12;4.47;;;1.98;;
62894;SDS011;49204;44.916;37.998;2023-03-14T15:46:41;3.87;;;1.40;;
62894;SDS011;49204;44.916;37.998;2023-03-14T15:49:09;8.10;;;2.37;;
62894;SDS011;49204;44.916;37.998;2023-03-14T15:51:38;3.83;;;2.20;;
62894;SDS011;49204;44.916;37.998;2023-03-14T15:54:06;4.20;;;1.90;;
62894;SDS011;49204;44.916;37.998;2023-03-14T15:56:35;6.08;;;1.87;;
62894;SDS011;49204;44.916;37.998;2023-03-14T15:59:04;4.92;;;2.20;;